sensor_id;sensor_type;location;lat;lon;timestamp;P1;durP1;ratioP1;P2;durP2;ratioP2
26686;SDS011;14298;50.900;4.648;2023-05-21T00:00:39;1.20;;;1.10;;
26686;SDS011;14298;50.900;4.648;2023-05-21T00:03:07;1.60;;;1.50;;
26686;SDS011;14298;50.900;4.648;2023-05-21T00:05:36;1.67;;;1.57;;
26686;SDS011;14298;50.900;4.648;2023-05-21T00:08:05;2.40;;;2.20;;
26686;SDS011;14298;50.900;4.648;2023-05-21T00:10:33;1.43;;;1.33;;
26686;SDS011;14298;50.900;4.648;2023-05-21T00:13:01;0.97;;;0.97;;
26686;SDS011;14298;50.900;4.648;2023-05-21T00:15:29;1.83;;;1.00;;
26686;SDS011;14298;50.900;4.648;2023-05-21T00:17:57;1.03;;;1.00;;
26686;SDS011;14298;50.900;4.648;2023-05-21T00:20:25;1.20;;;1.10;;
26686;SDS011;14298;50.900;4.648;2023-05-21T00:22:54;1.10;;;1.00;;
26686;SDS011;14298;50.900;4.648;2023-05-21T00:25:22;1.40;;;1.33;;
26686;SDS011;14298;50.900;4.648;2023-05-21T00:27:50;1.50;;;1.40;;
26686;SDS011;14298;50.900;4.648;2023-05-21T00:30:18;4.97;;;1.80;;
26686;SDS011;14298;50.900;4.648;2023-05-21T00:32:46;1.83;;;1.73;;
26686;SDS011;14298;50.900;4.648;2023-05-21T00:35:14;1.67;;;1.57;;
26686;SDS011;14298;50.900;4.648;2023-05-21T00:37:43;1.53;;;1.40;;
26686;SDS011;14298;50.900;4.648;2023-05-21T00:40:11;1.40;;;1.30;;
26686;SDS011;14298;50.900;4.648;2023-05-21T00:42:39;2.03;;;1.43;;
26686;SDS011;14298;50.900;4.648;2023-05-21T00:45:07;1.40;;;1.30;;
26686;SDS011;14298;50.900;4.648;2023-05-21T00:47:35;1.73;;;1.63;;
26686;SDS011;14298;50.900;4.648;2023-05-21T00:50:04;1.30;;;1.20;;
26686;SDS011;14298;50.900;4.648;2023-05-21T00:52:32;5.67;;;1.33;;
26686;SDS011;14298;50.900;4.648;2023-05-21T00:55:02;1.60;;;1.50;;
26686;SDS011;14298;50.900;4.648;2023-05-21T00:57:30;1.63;;;1.53;;
26686;SDS011;14298;50.900;4.648;2023-05-21T00:59:59;1.70;;;1.60;;
26686;SDS011;14298;50.900;4.648;2023-05-21T01:02:27;1.60;;;1.50;;
26686;SDS011;14298;50.900;4.648;2023-05-21T01:04:55;1.83;;;1.67;;
26686;SDS011;14298;50.900;4.648;2023-05-21T01:07:23;1.87;;;1.77;;
26686;SDS011;14298;50.900;4.648;2023-05-21T01:09:51;1.67;;;1.57;;
26686;SDS011;14298;50.900;4.648;2023-05-21T01:12:20;3.07;;;1.43;;
26686;SDS011;14298;50.900;4.648;2023-05-21T01:14:48;1.67;;;1.57;;
26686;SDS011;14298;50.900;4.648;2023-05-21T01:17:17;1.00;;;1.00;;
26686;SDS011;14298;50.900;4.648;2023-05-21T01:19:47;2.07;;;1.87;;
26686;SDS011;14298;50.900;4.648;2023-05-21T01:22:16;1.90;;;1.73;;
26686;SDS011;14298;50.900;4.648;2023-05-21T01:24:44;1.60;;;1.50;;
26686;SDS011;14298;50.900;4.648;2023-05-21T01:27:13;2.30;;;1.67;;
26686;SDS011;14298;50.900;4.648;2023-05-21T01:29:41;1.47;;;1.37;;
26686;SDS011;14298;50.900;4.648;2023-05-21T01:32:12;1.40;;;1.30;;
26686;SDS011;14298;50.900;4.648;2023-05-21T01:37:21;1.20;;;1.10;;
26686;SDS011;14298;50.900;4.648;2023-05-21T01:39:54;1.50;;;1.40;;
26686;SDS011;14298;50.900;4.648;2023-05-21T01:42:19;1.53;;;1.43;;
26686;SDS011;14298;50.900;4.648;2023-05-21T01:44:53;1.30;;;1.20;;
26686;SDS011;14298;50.900;4.648;2023-05-21T01:47:22;2.10;;;1.90;;
26686;SDS011;14298;50.900;4.648;2023-05-21T01:49:50;1.70;;;1.60;;
26686;SDS011;14298;50.900;4.648;2023-05-21T01:52:19;1.50;;;1.40;;
26686;SDS011;14298;50.900;4.648;2023-05-21T01:54:47;1.60;;;1.50;;
26686;SDS011;14298;50.900;4.648;2023-05-21T01:57:16;1.77;;;1.67;;
26686;SDS011;14298;50.900;4.648;2023-05-21T01:59:44;2.23;;;2.13;;
26686;SDS011;14298;50.900;4.648;2023-05-21T02:02:13;1.67;;;1.50;;
26686;SDS011;14298;50.900;4.648;2023-05-21T02:04:41;1.50;;;1.40;;
26686;SDS011;14298;50.900;4.648;2023-05-21T02:07:10;1.43;;;1.33;;
26686;SDS011;14298;50.900;4.648;2023-05-21T02:09:39;1.20;;;1.20;;
26686;SDS011;14298;50.900;4.648;2023-05-21T02:12:07;1.80;;;1.53;;
26686;SDS011;14298;50.900;4.648;2023-05-21T02:14:35;2.23;;;1.37;;
26686;SDS011;14298;50.900;4.648;2023-05-21T02:17:04;1.10;;;1.00;;
26686;SDS011;14298;50.900;4.648;2023-05-21T02:19:34;1.33;;;1.27;;
26686;SDS011;14298;50.900;4.648;2023-05-21T02:22:02;1.57;;;1.47;;
26686;SDS011;14298;50.900;4.648;2023-05-21T02:24:30;1.67;;;1.57;;
26686;SDS011;14298;50.900;4.648;2023-05-21T02:26:58;1.70;;;1.60;;
26686;SDS011;14298;50.900;4.648;2023-05-21T02:29:26;1.90;;;1.70;;
26686;SDS011;14298;50.900;4.648;2023-05-21T02:31:53;1.83;;;1.73;;
26686;SDS011;14298;50.900;4.648;2023-05-21T02:34:21;1.60;;;1.47;;
26686;SDS011;14298;50.900;4.648;2023-05-21T02:36:50;2.03;;;1.27;;
26686;SDS011;14298;50.900;4.648;2023-05-21T02:39:18;2.13;;;1.90;;
26686;SDS011;14298;50.900;4.648;2023-05-21T02:41:47;1.50;;;1.40;;
26686;SDS011;14298;50.900;4.648;2023-05-21T02:44:15;1.60;;;1.50;;
26686;SDS011;14298;50.900;4.648;2023-05-21T02:46:44;3.27;;;1.87;;
26686;SDS011;14298;50.900;4.648;2023-05-21T02:49:12;1.67;;;1.57;;
26686;SDS011;14298;50.900;4.648;2023-05-21T02:51:40;2.10;;;1.90;;
26686;SDS011;14298;50.900;4.648;2023-05-21T02:54:08;1.70;;;1.60;;
26686;SDS011;14298;50.900;4.648;2023-05-21T02:56:36;1.37;;;1.33;;
26686;SDS011;14298;50.900;4.648;2023-05-21T02:59:04;1.83;;;1.73;;
26686;SDS011;14298;50.900;4.648;2023-05-21T03:01:32;1.57;;;1.30;;
26686;SDS011;14298;50.900;4.648;2023-05-21T03:04:00;1.57;;;1.47;;
26686;SDS011;14298;50.900;4.648;2023-05-21T03:06:28;2.07;;;1.57;;
26686;SDS011;14298;50.900;4.648;2023-05-21T03:08:58;2.10;;;2.00;;
26686;SDS011;14298;50.900;4.648;2023-05-21T03:11:26;1.70;;;1.60;;
26686;SDS011;14298;50.900;4.648;2023-05-21T03:13:54;1.20;;;1.17;;
26686;SDS011;14298;50.900;4.648;2023-05-21T03:16:21;2.37;;;1.70;;
26686;SDS011;14298;50.900;4.648;2023-05-21T03:18:49;1.63;;;1.53;;
26686;SDS011;14298;50.900;4.648;2023-05-21T03:21:17;2.00;;;1.90;;
26686;SDS011;14298;50.900;4.648;2023-05-21T03:23:47;1.27;;;1.20;;
26686;SDS011;14298;50.900;4.648;2023-05-21T03:26:15;1.30;;;1.30;;
26686;SDS011;14298;50.900;4.648;2023-05-21T03:28:44;1.80;;;1.70;;
26686;SDS011;14298;50.900;4.648;2023-05-21T03:31:12;3.83;;;1.60;;
26686;SDS011;14298;50.900;4.648;2023-05-21T03:33:40;1.10;;;1.10;;
26686;SDS011;14298;50.900;4.648;2023-05-21T03:36:07;2.10;;;1.30;;
26686;SDS011;14298;50.900;4.648;2023-05-21T03:38:36;4.97;;;1.87;;
26686;SDS011;14298;50.900;4.648;2023-05-21T03:41:04;1.77;;;1.60;;
26686;SDS011;14298;50.900;4.648;2023-05-21T03:43:32;1.73;;;1.63;;
26686;SDS011;14298;50.900;4.648;2023-05-21T03:46:00;1.90;;;1.80;;
26686;SDS011;14298;50.900;4.648;2023-05-21T03:48:28;1.57;;;1.43;;
26686;SDS011;14298;50.900;4.648;2023-05-21T03:50:56;3.10;;;2.80;;
26686;SDS011;14298;50.900;4.648;2023-05-21T03:53:25;4.67;;;1.67;;
26686;SDS011;14298;50.900;4.648;2023-05-21T03:55:53;3.97;;;2.80;;
26686;SDS011;14298;50.900;4.648;2023-05-21T03:58:21;2.10;;;1.90;;
26686;SDS011;14298;50.900;4.648;2023-05-21T04:00:49;2.23;;;2.03;;
26686;SDS011;14298;50.900;4.648;2023-05-21T04:03:17;1.60;;;1.50;;
26686;SDS011;14298;50.900;4.648;2023-05-21T04:05:45;2.30;;;2.10;;
26686;SDS011;14298;50.900;4.648;2023-05-21T04:08:14;2.07;;;1.90;;
26686;SDS011;14298;50.900;4.648;2023-05-21T04:10:42;3.07;;;2.83;;
26686;SDS011;14298;50.900;4.648;2023-05-21T04:13:10;3.10;;;2.90;;
26686;SDS011;14298;50.900;4.648;2023-05-21T04:15:38;3.47;;;2.20;;
26686;SDS011;14298;50.900;4.648;2023-05-21T04:18:06;1.77;;;1.50;;
26686;SDS011;14298;50.900;4.648;2023-05-21T04:20:34;3.27;;;1.90;;
26686;SDS011;14298;50.900;4.648;2023-05-21T04:23:02;2.30;;;1.97;;
26686;SDS011;14298;50.900;4.648;2023-05-21T04:25:30;3.73;;;2.17;;
26686;SDS011;14298;50.900;4.648;2023-05-21T04:27:58;2.63;;;2.43;;
26686;SDS011;14298;50.900;4.648;2023-05-21T04:30:27;3.13;;;2.67;;
26686;SDS011;14298;50.900;4.648;2023-05-21T04:32:54;2.63;;;2.43;;
26686;SDS011;14298;50.900;4.648;2023-05-21T04:35:23;4.07;;;2.83;;
26686;SDS011;14298;50.900;4.648;2023-05-21T04:37:52;3.27;;;3.07;;
26686;SDS011;14298;50.900;4.648;2023-05-21T04:40:20;3.27;;;2.43;;
26686;SDS011;14298;50.900;4.648;2023-05-21T04:42:50;3.33;;;3.00;;
26686;SDS011;14298;50.900;4.648;2023-05-21T04:45:18;2.70;;;2.50;;
26686;SDS011;14298;50.900;4.648;2023-05-21T04:47:47;4.87;;;2.40;;
26686;SDS011;14298;50.900;4.648;2023-05-21T04:50:15;2.33;;;2.13;;
26686;SDS011;14298;50.900;4.648;2023-05-21T04:52:43;2.47;;;2.33;;
26686;SDS011;14298;50.900;4.648;2023-05-21T04:55:11;1.70;;;1.60;;
26686;SDS011;14298;50.900;4.648;2023-05-21T04:57:39;3.83;;;2.83;;
26686;SDS011;14298;50.900;4.648;2023-05-21T05:00:07;3.13;;;2.87;;
26686;SDS011;14298;50.900;4.648;2023-05-21T05:02:36;2.57;;;2.37;;
26686;SDS011;14298;50.900;4.648;2023-05-21T05:05:04;2.37;;;2.20;;
26686;SDS011;14298;50.900;4.648;2023-05-21T05:07:32;3.40;;;2.27;;
26686;SDS011;14298;50.900;4.648;2023-05-21T05:10:00;2.20;;;2.03;;
26686;SDS011;14298;50.900;4.648;2023-05-21T05:12:28;2.03;;;1.83;;
26686;SDS011;14298;50.900;4.648;2023-05-21T05:14:56;2.77;;;2.50;;
26686;SDS011;14298;50.900;4.648;2023-05-21T05:17:24;2.70;;;2.40;;
26686;SDS011;14298;50.900;4.648;2023-05-21T05:19:52;3.30;;;2.83;;
26686;SDS011;14298;50.900;4.648;2023-05-21T05:22:20;2.73;;;2.53;;
26686;SDS011;14298;50.900;4.648;2023-05-21T05:24:48;4.27;;;2.20;;
26686;SDS011;14298;50.900;4.648;2023-05-21T05:27:16;2.20;;;1.87;;
26686;SDS011;14298;50.900;4.648;2023-05-21T05:29:45;2.37;;;2.17;;
26686;SDS011;14298;50.900;4.648;2023-05-21T05:32:13;2.47;;;2.10;;
26686;SDS011;14298;50.900;4.648;2023-05-21T05:34:41;3.07;;;2.33;;
26686;SDS011;14298;50.900;4.648;2023-05-21T05:37:10;2.10;;;1.70;;
26686;SDS011;14298;50.900;4.648;2023-05-21T05:39:38;2.93;;;2.60;;
26686;SDS011;14298;50.900;4.648;2023-05-21T05:42:06;2.87;;;2.53;;
26686;SDS011;14298;50.900;4.648;2023-05-21T05:44:33;2.53;;;2.30;;
26686;SDS011;14298;50.900;4.648;2023-05-21T05:47:01;5.50;;;2.17;;
26686;SDS011;14298;50.900;4.648;2023-05-21T05:49:31;2.47;;;2.27;;
26686;SDS011;14298;50.900;4.648;2023-05-21T05:51:59;2.00;;;1.80;;
26686;SDS011;14298;50.900;4.648;2023-05-21T05:54:27;3.80;;;2.93;;
26686;SDS011;14298;50.900;4.648;2023-05-21T05:56:55;2.27;;;2.07;;
26686;SDS011;14298;50.900;4.648;2023-05-21T05:59:23;2.10;;;1.90;;
26686;SDS011;14298;50.900;4.648;2023-05-21T06:01:51;2.17;;;1.97;;
26686;SDS011;14298;50.900;4.648;2023-05-21T06:04:19;3.63;;;2.17;;
26686;SDS011;14298;50.900;4.648;2023-05-21T06:06:47;2.60;;;2.40;;
26686;SDS011;14298;50.900;4.648;2023-05-21T06:09:15;2.93;;;2.30;;
26686;SDS011;14298;50.900;4.648;2023-05-21T06:11:43;2.30;;;2.10;;
26686;SDS011;14298;50.900;4.648;2023-05-21T06:14:11;2.60;;;2.40;;
26686;SDS011;14298;50.900;4.648;2023-05-21T06:19:26;3.13;;;2.30;;
26686;SDS011;14298;50.900;4.648;2023-05-21T06:21:54;2.33;;;2.13;;
26686;SDS011;14298;50.900;4.648;2023-05-21T06:24:22;2.43;;;2.23;;
26686;SDS011;14298;50.900;4.648;2023-05-21T06:26:50;6.43;;;2.80;;
26686;SDS011;14298;50.900;4.648;2023-05-21T06:29:18;5.27;;;3.63;;
26686;SDS011;14298;50.900;4.648;2023-05-21T06:31:46;3.63;;;2.60;;
26686;SDS011;14298;50.900;4.648;2023-05-21T06:34:14;2.90;;;2.70;;
26686;SDS011;14298;50.900;4.648;2023-05-21T06:36:42;3.90;;;2.37;;
26686;SDS011;14298;50.900;4.648;2023-05-21T06:39:10;4.47;;;2.67;;
26686;SDS011;14298;50.900;4.648;2023-05-21T06:41:38;2.23;;;2.03;;
26686;SDS011;14298;50.900;4.648;2023-05-21T06:44:06;4.70;;;2.47;;
26686;SDS011;14298;50.900;4.648;2023-05-21T06:46:34;4.10;;;3.70;;
26686;SDS011;14298;50.900;4.648;2023-05-21T06:49:02;2.93;;;2.63;;
26686;SDS011;14298;50.900;4.648;2023-05-21T06:51:32;2.90;;;2.63;;
26686;SDS011;14298;50.900;4.648;2023-05-21T06:54:00;2.97;;;2.73;;
26686;SDS011;14298;50.900;4.648;2023-05-21T06:56:28;2.73;;;2.40;;
26686;SDS011;14298;50.900;4.648;2023-05-21T06:58:56;3.87;;;2.40;;
26686;SDS011;14298;50.900;4.648;2023-05-21T07:01:25;3.00;;;2.53;;
26686;SDS011;14298;50.900;4.648;2023-05-21T07:03:53;2.67;;;2.43;;
26686;SDS011;14298;50.900;4.648;2023-05-21T07:06:21;2.37;;;2.17;;
26686;SDS011;14298;50.900;4.648;2023-05-21T07:08:49;2.50;;;2.07;;
26686;SDS011;14298;50.900;4.648;2023-05-21T07:11:17;2.63;;;2.43;;
26686;SDS011;14298;50.900;4.648;2023-05-21T07:13:45;4.20;;;3.00;;
26686;SDS011;14298;50.900;4.648;2023-05-21T07:16:14;3.37;;;2.40;;
26686;SDS011;14298;50.900;4.648;2023-05-21T07:18:43;2.80;;;2.60;;
26686;SDS011;14298;50.900;4.648;2023-05-21T07:21:11;3.80;;;2.70;;
26686;SDS011;14298;50.900;4.648;2023-05-21T07:23:39;5.60;;;2.47;;
26686;SDS011;14298;50.900;4.648;2023-05-21T07:26:08;4.23;;;2.97;;
26686;SDS011;14298;50.900;4.648;2023-05-21T07:28:37;2.80;;;2.50;;
26686;SDS011;14298;50.900;4.648;2023-05-21T07:31:05;2.23;;;1.73;;
26686;SDS011;14298;50.900;4.648;2023-05-21T07:33:34;2.67;;;2.10;;
26686;SDS011;14298;50.900;4.648;2023-05-21T07:36:02;4.07;;;2.07;;
26686;SDS011;14298;50.900;4.648;2023-05-21T07:38:30;4.53;;;2.77;;
26686;SDS011;14298;50.900;4.648;2023-05-21T07:40:58;2.30;;;2.10;;
26686;SDS011;14298;50.900;4.648;2023-05-21T07:43:26;2.10;;;1.90;;
26686;SDS011;14298;50.900;4.648;2023-05-21T07:45:54;2.50;;;2.30;;
26686;SDS011;14298;50.900;4.648;2023-05-21T07:48:22;2.17;;;1.97;;
26686;SDS011;14298;50.900;4.648;2023-05-21T07:50:50;3.73;;;2.47;;
26686;SDS011;14298;50.900;4.648;2023-05-21T07:53:19;3.10;;;2.37;;
26686;SDS011;14298;50.900;4.648;2023-05-21T07:55:47;4.13;;;2.90;;
26686;SDS011;14298;50.900;4.648;2023-05-21T07:58:15;2.50;;;2.30;;
26686;SDS011;14298;50.900;4.648;2023-05-21T08:00:44;5.00;;;2.83;;
26686;SDS011;14298;50.900;4.648;2023-05-21T08:03:13;3.60;;;2.57;;
26686;SDS011;14298;50.900;4.648;2023-05-21T08:05:44;4.67;;;2.50;;
26686;SDS011;14298;50.900;4.648;2023-05-21T08:08:14;5.13;;;2.60;;
26686;SDS011;14298;50.900;4.648;2023-05-21T08:10:43;3.17;;;2.87;;
26686;SDS011;14298;50.900;4.648;2023-05-21T08:13:11;2.87;;;2.37;;
26686;SDS011;14298;50.900;4.648;2023-05-21T08:15:39;3.33;;;2.83;;
26686;SDS011;14298;50.900;4.648;2023-05-21T08:18:08;3.40;;;2.60;;
26686;SDS011;14298;50.900;4.648;2023-05-21T08:20:36;2.13;;;1.93;;
26686;SDS011;14298;50.900;4.648;2023-05-21T08:23:04;4.47;;;3.03;;
26686;SDS011;14298;50.900;4.648;2023-05-21T08:25:32;3.70;;;2.77;;
26686;SDS011;14298;50.900;4.648;2023-05-21T08:28:00;2.77;;;2.53;;
26686;SDS011;14298;50.900;4.648;2023-05-21T08:30:28;3.67;;;2.90;;
26686;SDS011;14298;50.900;4.648;2023-05-21T08:32:56;3.23;;;2.73;;
26686;SDS011;14298;50.900;4.648;2023-05-21T08:35:24;4.77;;;2.63;;
26686;SDS011;14298;50.900;4.648;2023-05-21T08:37:52;4.40;;;2.73;;
26686;SDS011;14298;50.900;4.648;2023-05-21T08:40:20;3.53;;;3.17;;
26686;SDS011;14298;50.900;4.648;2023-05-21T08:42:48;2.50;;;2.30;;
26686;SDS011;14298;50.900;4.648;2023-05-21T08:45:20;3.33;;;2.60;;
26686;SDS011;14298;50.900;4.648;2023-05-21T08:47:55;3.77;;;2.33;;
26686;SDS011;14298;50.900;4.648;2023-05-21T08:50:25;4.13;;;3.23;;
26686;SDS011;14298;50.900;4.648;2023-05-21T08:52:53;4.27;;;3.00;;
26686;SDS011;14298;50.900;4.648;2023-05-21T08:55:22;3.00;;;2.50;;
26686;SDS011;14298;50.900;4.648;2023-05-21T08:57:50;3.27;;;2.63;;
26686;SDS011;14298;50.900;4.648;2023-05-21T09:00:20;4.33;;;3.27;;
26686;SDS011;14298;50.900;4.648;2023-05-21T09:02:48;4.80;;;3.47;;
26686;SDS011;14298;50.900;4.648;2023-05-21T09:05:19;3.33;;;2.63;;
26686;SDS011;14298;50.900;4.648;2023-05-21T09:10:32;4.20;;;3.47;;
26686;SDS011;14298;50.900;4.648;2023-05-21T09:12:58;4.13;;;3.07;;
26686;SDS011;14298;50.900;4.648;2023-05-21T09:15:27;2.97;;;2.70;;
26686;SDS011;14298;50.900;4.648;2023-05-21T09:17:55;3.50;;;2.70;;
26686;SDS011;14298;50.900;4.648;2023-05-21T09:20:24;4.47;;;2.43;;
26686;SDS011;14298;50.900;4.648;2023-05-21T09:22:53;3.50;;;3.00;;
26686;SDS011;14298;50.900;4.648;2023-05-21T09:25:25;2.83;;;2.53;;
26686;SDS011;14298;50.900;4.648;2023-05-21T09:27:55;3.67;;;2.67;;
26686;SDS011;14298;50.900;4.648;2023-05-21T09:30:23;7.30;;;2.90;;
26686;SDS011;14298;50.900;4.648;2023-05-21T09:32:52;4.87;;;2.77;;
26686;SDS011;14298;50.900;4.648;2023-05-21T09:35:21;4.10;;;3.23;;
26686;SDS011;14298;50.900;4.648;2023-05-21T09:37:49;4.87;;;3.33;;
26686;SDS011;14298;50.900;4.648;2023-05-21T09:40:19;3.17;;;2.87;;
26686;SDS011;14298;50.900;4.648;2023-05-21T09:42:48;5.67;;;3.47;;
26686;SDS011;14298;50.900;4.648;2023-05-21T09:45:22;4.20;;;2.77;;
26686;SDS011;14298;50.900;4.648;2023-05-21T09:47:46;3.17;;;2.80;;
26686;SDS011;14298;50.900;4.648;2023-05-21T09:52:47;5.73;;;3.63;;
26686;SDS011;14298;50.900;4.648;2023-05-21T09:55:16;3.63;;;3.27;;
26686;SDS011;14298;50.900;4.648;2023-05-21T09:57:45;3.67;;;3.03;;
26686;SDS011;14298;50.900;4.648;2023-05-21T10:00:26;6.13;;;3.17;;
26686;SDS011;14298;50.900;4.648;2023-05-21T10:02:56;11.17;;;3.37;;
26686;SDS011;14298;50.900;4.648;2023-05-21T10:05:25;3.73;;;3.33;;
26686;SDS011;14298;50.900;4.648;2023-05-21T10:08:03;4.53;;;3.53;;
26686;SDS011;14298;50.900;4.648;2023-05-21T10:10:23;6.13;;;3.70;;
26686;SDS011;14298;50.900;4.648;2023-05-21T10:12:57;4.73;;;3.70;;
26686;SDS011;14298;50.900;4.648;2023-05-21T10:15:24;5.27;;;3.17;;
26686;SDS011;14298;50.900;4.648;2023-05-21T10:17:54;4.80;;;3.00;;
26686;SDS011;14298;50.900;4.648;2023-05-21T10:20:23;6.57;;;4.47;;
26686;SDS011;14298;50.900;4.648;2023-05-21T10:22:50;5.20;;;3.53;;
26686;SDS011;14298;50.900;4.648;2023-05-21T10:25:19;5.30;;;4.00;;
26686;SDS011;14298;50.900;4.648;2023-05-21T10:27:48;6.80;;;4.37;;
26686;SDS011;14298;50.900;4.648;2023-05-21T10:30:16;5.60;;;4.03;;
26686;SDS011;14298;50.900;4.648;2023-05-21T10:32:45;4.60;;;3.80;;
26686;SDS011;14298;50.900;4.648;2023-05-21T10:35:15;6.77;;;4.03;;
26686;SDS011;14298;50.900;4.648;2023-05-21T10:37:43;5.67;;;3.47;;
26686;SDS011;14298;50.900;4.648;2023-05-21T10:40:11;6.37;;;3.73;;
26686;SDS011;14298;50.900;4.648;2023-05-21T10:45:22;8.53;;;4.47;;
26686;SDS011;14298;50.900;4.648;2023-05-21T10:53:11;6.53;;;4.33;;
26686;SDS011;14298;50.900;4.648;2023-05-21T10:55:49;6.77;;;4.47;;
26686;SDS011;14298;50.900;4.648;2023-05-21T11:00:48;5.23;;;4.07;;
26686;SDS011;14298;50.900;4.648;2023-05-21T11:03:16;5.63;;;3.87;;
26686;SDS011;14298;50.900;4.648;2023-05-21T11:05:52;6.73;;;4.80;;
26686;SDS011;14298;50.900;4.648;2023-05-21T11:08:21;6.37;;;4.60;;
26686;SDS011;14298;50.900;4.648;2023-05-21T11:10:50;5.77;;;4.13;;
26686;SDS011;14298;50.900;4.648;2023-05-21T11:13:19;6.37;;;3.77;;
26686;SDS011;14298;50.900;4.648;2023-05-21T11:26:25;5.83;;;3.87;;
26686;SDS011;14298;50.900;4.648;2023-05-21T11:31:33;7.77;;;4.33;;
26686;SDS011;14298;50.900;4.648;2023-05-21T11:36:37;4.83;;;4.20;;
26686;SDS011;14298;50.900;4.648;2023-05-21T11:39:09;4.90;;;4.07;;
26686;SDS011;14298;50.900;4.648;2023-05-21T11:47:11;6.43;;;3.53;;
26686;SDS011;14298;50.900;4.648;2023-05-21T11:49:41;5.03;;;4.30;;
26686;SDS011;14298;50.900;4.648;2023-05-21T11:52:09;5.40;;;4.63;;
26686;SDS011;14298;50.900;4.648;2023-05-21T11:54:44;6.47;;;4.53;;
26686;SDS011;14298;50.900;4.648;2023-05-21T11:57:14;4.23;;;3.47;;
26686;SDS011;14298;50.900;4.648;2023-05-21T11:59:44;5.43;;;4.07;;
26686;SDS011;14298;50.900;4.648;2023-05-21T12:02:20;6.73;;;3.83;;
26686;SDS011;14298;50.900;4.648;2023-05-21T12:04:45;7.93;;;4.37;;
26686;SDS011;14298;50.900;4.648;2023-05-21T12:07:15;5.37;;;3.77;;
26686;SDS011;14298;50.900;4.648;2023-05-21T12:09:47;8.17;;;4.70;;
26686;SDS011;14298;50.900;4.648;2023-05-21T12:12:16;6.67;;;4.63;;
26686;SDS011;14298;50.900;4.648;2023-05-21T12:14:45;5.67;;;4.23;;
26686;SDS011;14298;50.900;4.648;2023-05-21T12:17:22;5.77;;;3.83;;
26686;SDS011;14298;50.900;4.648;2023-05-21T12:19:46;8.40;;;5.87;;
26686;SDS011;14298;50.900;4.648;2023-05-21T12:22:15;5.80;;;4.33;;
26686;SDS011;14298;50.900;4.648;2023-05-21T12:24:43;4.83;;;3.43;;
26686;SDS011;14298;50.900;4.648;2023-05-21T12:27:11;5.03;;;4.23;;
26686;SDS011;14298;50.900;4.648;2023-05-21T12:29:42;9.73;;;5.47;;
26686;SDS011;14298;50.900;4.648;2023-05-21T12:32:11;5.07;;;3.83;;
26686;SDS011;14298;50.900;4.648;2023-05-21T12:37:16;6.00;;;4.97;;
26686;SDS011;14298;50.900;4.648;2023-05-21T12:39:46;5.90;;;5.00;;
26686;SDS011;14298;50.900;4.648;2023-05-21T12:42:14;7.47;;;4.23;;
26686;SDS011;14298;50.900;4.648;2023-05-21T12:44:42;6.83;;;3.90;;
26686;SDS011;14298;50.900;4.648;2023-05-21T12:47:11;5.00;;;4.50;;
26686;SDS011;14298;50.900;4.648;2023-05-21T12:49:40;5.70;;;4.43;;
26686;SDS011;14298;50.900;4.648;2023-05-21T12:52:09;6.90;;;4.70;;
26686;SDS011;14298;50.900;4.648;2023-05-21T12:54:38;10.77;;;5.53;;
26686;SDS011;14298;50.900;4.648;2023-05-21T12:57:06;7.40;;;4.90;;
26686;SDS011;14298;50.900;4.648;2023-05-21T12:59:45;9.77;;;4.70;;
26686;SDS011;14298;50.900;4.648;2023-05-21T13:02:14;7.13;;;4.93;;
26686;SDS011;14298;50.900;4.648;2023-05-21T13:04:42;6.37;;;4.53;;
26686;SDS011;14298;50.900;4.648;2023-05-21T13:07:10;5.83;;;4.20;;
26686;SDS011;14298;50.900;4.648;2023-05-21T13:09:38;6.40;;;4.40;;
26686;SDS011;14298;50.900;4.648;2023-05-21T13:12:06;5.20;;;3.83;;
26686;SDS011;14298;50.900;4.648;2023-05-21T13:14:34;6.87;;;4.37;;
26686;SDS011;14298;50.900;4.648;2023-05-21T13:17:03;6.87;;;4.47;;
26686;SDS011;14298;50.900;4.648;2023-05-21T13:19:31;11.87;;;5.77;;
26686;SDS011;14298;50.900;4.648;2023-05-21T13:21:59;5.57;;;4.37;;
26686;SDS011;14298;50.900;4.648;2023-05-21T13:24:27;6.50;;;4.07;;
26686;SDS011;14298;50.900;4.648;2023-05-21T13:26:55;5.30;;;4.03;;
26686;SDS011;14298;50.900;4.648;2023-05-21T13:29:23;6.47;;;4.63;;
26686;SDS011;14298;50.900;4.648;2023-05-21T13:31:51;5.83;;;4.23;;
26686;SDS011;14298;50.900;4.648;2023-05-21T13:34:19;8.53;;;5.30;;
26686;SDS011;14298;50.900;4.648;2023-05-21T13:36:47;5.53;;;4.03;;
26686;SDS011;14298;50.900;4.648;2023-05-21T13:39:15;4.30;;;3.80;;
26686;SDS011;14298;50.900;4.648;2023-05-21T13:41:43;4.97;;;3.97;;
26686;SDS011;14298;50.900;4.648;2023-05-21T13:44:13;7.83;;;4.30;;
26686;SDS011;14298;50.900;4.648;2023-05-21T13:46:41;7.83;;;4.83;;
26686;SDS011;14298;50.900;4.648;2023-05-21T13:49:09;6.47;;;4.43;;
26686;SDS011;14298;50.900;4.648;2023-05-21T13:51:37;4.90;;;4.10;;
26686;SDS011;14298;50.900;4.648;2023-05-21T13:54:05;10.63;;;5.63;;
26686;SDS011;14298;50.900;4.648;2023-05-21T13:56:33;3.93;;;3.50;;
26686;SDS011;14298;50.900;4.648;2023-05-21T13:59:01;6.07;;;4.37;;
26686;SDS011;14298;50.900;4.648;2023-05-21T14:01:29;7.40;;;3.93;;
26686;SDS011;14298;50.900;4.648;2023-05-21T14:03:57;5.43;;;3.93;;
26686;SDS011;14298;50.900;4.648;2023-05-21T14:06:27;5.33;;;4.07;;
26686;SDS011;14298;50.900;4.648;2023-05-21T14:08:55;5.60;;;4.53;;
26686;SDS011;14298;50.900;4.648;2023-05-21T14:11:23;5.93;;;4.47;;
26686;SDS011;14298;50.900;4.648;2023-05-21T14:13:51;6.20;;;4.33;;
26686;SDS011;14298;50.900;4.648;2023-05-21T14:16:19;6.60;;;4.20;;
26686;SDS011;14298;50.900;4.648;2023-05-21T14:18:49;5.67;;;4.23;;
26686;SDS011;14298;50.900;4.648;2023-05-21T14:21:17;5.23;;;4.53;;
26686;SDS011;14298;50.900;4.648;2023-05-21T14:23:46;5.40;;;4.20;;
26686;SDS011;14298;50.900;4.648;2023-05-21T14:26:14;4.40;;;3.93;;
26686;SDS011;14298;50.900;4.648;2023-05-21T14:28:43;5.10;;;4.47;;
26686;SDS011;14298;50.900;4.648;2023-05-21T14:31:12;4.47;;;4.07;;
26686;SDS011;14298;50.900;4.648;2023-05-21T14:36:28;6.40;;;4.60;;
26686;SDS011;14298;50.900;4.648;2023-05-21T14:38:57;4.77;;;4.20;;
26686;SDS011;14298;50.900;4.648;2023-05-21T14:41:25;5.70;;;4.07;;
26686;SDS011;14298;50.900;4.648;2023-05-21T14:43:53;4.90;;;4.17;;
26686;SDS011;14298;50.900;4.648;2023-05-21T14:46:22;5.97;;;4.67;;
26686;SDS011;14298;50.900;4.648;2023-05-21T14:48:50;6.60;;;4.07;;
26686;SDS011;14298;50.900;4.648;2023-05-21T14:51:18;4.80;;;3.97;;
26686;SDS011;14298;50.900;4.648;2023-05-21T14:53:47;4.97;;;4.03;;
26686;SDS011;14298;50.900;4.648;2023-05-21T14:56:15;4.90;;;4.00;;
26686;SDS011;14298;50.900;4.648;2023-05-21T14:58:43;6.10;;;4.37;;
26686;SDS011;14298;50.900;4.648;2023-05-21T15:01:11;6.57;;;4.23;;
26686;SDS011;14298;50.900;4.648;2023-05-21T15:03:39;3.80;;;3.37;;
26686;SDS011;14298;50.900;4.648;2023-05-21T15:06:07;6.07;;;3.90;;
26686;SDS011;14298;50.900;4.648;2023-05-21T15:08:35;8.17;;;4.57;;
26686;SDS011;14298;50.900;4.648;2023-05-21T15:11:03;3.80;;;3.10;;
26686;SDS011;14298;50.900;4.648;2023-05-21T15:13:32;4.80;;;4.00;;
26686;SDS011;14298;50.900;4.648;2023-05-21T15:16:00;4.10;;;3.70;;
26686;SDS011;14298;50.900;4.648;2023-05-21T15:18:28;4.70;;;3.93;;
26686;SDS011;14298;50.900;4.648;2023-05-21T15:20:56;5.13;;;3.53;;
26686;SDS011;14298;50.900;4.648;2023-05-21T15:23:25;6.87;;;4.53;;
26686;SDS011;14298;50.900;4.648;2023-05-21T15:25:53;9.00;;;4.27;;
26686;SDS011;14298;50.900;4.648;2023-05-21T15:28:21;5.20;;;4.00;;
26686;SDS011;14298;50.900;4.648;2023-05-21T15:30:49;7.87;;;4.47;;
26686;SDS011;14298;50.900;4.648;2023-05-21T15:33:17;7.40;;;4.40;;
26686;SDS011;14298;50.900;4.648;2023-05-21T15:35:45;4.20;;;3.43;;
26686;SDS011;14298;50.900;4.648;2023-05-21T15:38:13;3.60;;;3.03;;
26686;SDS011;14298;50.900;4.648;2023-05-21T15:40:41;5.60;;;4.20;;
26686;SDS011;14298;50.900;4.648;2023-05-21T15:43:09;5.03;;;4.08;;